Whitewater, Montana
Current Conditions -  °F | °C
As of 1:53 PM on Thursday 18 Dec 2014 (Local Time) from KGGW Reporting Station
Clear Clear  
Wind Chill: 32°   Ceiling: Unl
Heat Index: 32°   Visibility: 9mi
Dew Point: 25°   Wind: 0mph
Humidity: 75%   Direction: NA
Pressure: 29.9"   Gusts: NA
Location:  48.76°N, 107.62°W
Report Text: KGGW 182053Z AUTO 00000KT 9SM CLR 00/M04 A2990 RMK AO2 SLP155 T00001039 56014
Loading
Personal Weather Stations






























Interactive Weather Map New forecast layout! Learn more

10-Day Weather Forecast

Advertisements
Track Severe Weather on mobile